createdAt,value
2019-02-12T00:00:50.597Z,6.67
2019-02-12T00:03:20.018Z,5.57
2019-02-12T00:05:49.470Z,6.13
2019-02-12T00:08:18.954Z,6.00
2019-02-12T00:10:48.387Z,5.97
2019-02-12T00:13:17.805Z,5.60
2019-02-12T00:15:47.316Z,7.03
2019-02-12T00:18:16.718Z,6.77
2019-02-12T00:20:46.421Z,4.80
2019-02-12T00:23:15.834Z,5.07
2019-02-12T00:25:45.350Z,4.77
2019-02-12T00:28:14.842Z,4.37
2019-02-12T00:30:44.578Z,5.90
2019-02-12T00:33:14.038Z,5.00
2019-02-12T00:35:43.498Z,5.03
2019-02-12T00:38:13.071Z,5.03
2019-02-12T00:40:42.490Z,5.43
2019-02-12T00:43:11.898Z,5.00
2019-02-12T00:45:41.399Z,4.60
2019-02-12T00:48:10.786Z,5.03
2019-02-12T00:50:40.208Z,6.47
2019-02-12T00:53:09.606Z,5.83
2019-02-12T00:55:39.102Z,5.83
2019-02-12T00:58:08.502Z,6.50
2019-02-12T01:00:37.946Z,5.20
2019-02-12T01:03:07.334Z,4.70
2019-02-12T01:05:36.741Z,4.73
2019-02-12T01:08:06.568Z,5.00
2019-02-12T01:10:35.985Z,5.57
2019-02-12T01:13:05.397Z,5.77
2019-02-12T01:15:34.839Z,6.37
2019-02-12T01:18:04.259Z,5.10
2019-02-12T01:20:33.658Z,5.10
2019-02-12T01:23:03.169Z,4.87
2019-02-12T01:25:32.630Z,5.30
2019-02-12T01:28:02.022Z,5.33
2019-02-12T01:30:31.488Z,4.83
2019-02-12T01:33:00.882Z,4.87
2019-02-12T01:35:30.329Z,4.60
2019-02-12T01:37:59.835Z,4.60
2019-02-12T01:40:29.259Z,4.70
2019-02-12T01:42:58.646Z,4.50
2019-02-12T01:45:28.111Z,4.30
2019-02-12T01:47:57.709Z,4.33
2019-02-12T01:50:27.110Z,5.83
2019-02-12T01:52:56.575Z,6.43
2019-02-12T01:55:25.983Z,5.27
2019-02-12T01:57:55.397Z,4.40
2019-02-12T02:00:24.805Z,4.13
2019-02-12T02:02:54.235Z,4.83
2019-02-12T02:05:23.626Z,4.60
2019-02-12T02:07:53.041Z,4.07
2019-02-12T02:10:22.422Z,4.17
2019-02-12T02:12:51.848Z,4.37
2019-02-12T02:15:21.319Z,4.67
2019-02-12T02:17:50.750Z,4.80
2019-02-12T02:20:20.161Z,5.53
2019-02-12T02:22:49.594Z,4.30
2019-02-12T02:25:19.081Z,5.53
2019-02-12T02:27:48.511Z,4.93
2019-02-12T02:30:17.983Z,4.50
2019-02-12T02:32:47.423Z,3.93
2019-02-12T02:35:16.829Z,4.47
2019-02-12T02:37:46.245Z,4.97
2019-02-12T02:40:15.706Z,4.70
2019-02-12T02:42:45.126Z,4.40
2019-02-12T02:45:14.539Z,4.43
2019-02-12T02:47:44.001Z,6.40
2019-02-12T02:50:13.377Z,5.67
2019-02-12T02:52:42.798Z,5.70
2019-02-12T02:55:12.207Z,5.17
2019-02-12T02:57:41.614Z,5.07
2019-02-12T03:00:11.702Z,5.10
2019-02-12T03:02:41.117Z,5.07
2019-02-12T03:05:10.614Z,5.57
2019-02-12T03:07:40.061Z,5.10
2019-02-12T03:10:09.749Z,5.90
2019-02-12T03:12:39.176Z,5.03
2019-02-12T03:15:08.962Z,4.60
2019-02-12T03:17:38.401Z,5.80
2019-02-12T03:20:08.618Z,5.47
2019-02-12T03:22:38.030Z,5.00
2019-02-12T03:25:07.518Z,4.43
2019-02-12T03:27:36.958Z,4.43
2019-02-12T03:30:06.483Z,4.40
2019-02-12T03:32:36.863Z,4.60
2019-02-12T03:35:06.400Z,4.80
2019-02-12T03:37:35.900Z,5.07
2019-02-12T03:40:05.660Z,4.47
2019-02-12T03:42:35.136Z,5.47
2019-02-12T03:45:04.952Z,3.60
2019-02-12T03:47:34.388Z,4.07
2019-02-12T03:50:03.821Z,4.37
2019-02-12T03:52:33.225Z,4.07
2019-02-12T03:55:02.764Z,3.87
2019-02-12T03:57:32.389Z,4.13
2019-02-12T04:00:01.841Z,5.00
2019-02-12T04:02:31.346Z,3.93
2019-02-12T04:05:00.802Z,4.50
2019-02-12T04:07:30.226Z,4.00
2019-02-12T04:09:59.732Z,4.43
2019-02-12T04:12:29.158Z,4.37
2019-02-12T04:14:58.595Z,3.40
2019-02-12T04:17:28.102Z,4.30
2019-02-12T04:19:57.573Z,4.20
2019-02-12T04:22:26.976Z,3.67
2019-02-12T04:24:56.383Z,4.10
2019-02-12T04:27:25.781Z,4.30
2019-02-12T04:29:55.216Z,4.10
2019-02-12T04:32:24.687Z,3.93
2019-02-12T04:34:54.119Z,3.87
2019-02-12T04:37:23.539Z,4.30
2019-02-12T04:39:52.986Z,4.27
2019-02-12T04:42:22.482Z,4.30
2019-02-12T04:44:54.236Z,4.40
2019-02-12T04:47:22.998Z,3.33
2019-02-12T04:49:52.416Z,4.00
2019-02-12T04:52:21.857Z,4.67
2019-02-12T04:54:51.368Z,4.37
2019-02-12T04:57:20.823Z,5.07
2019-02-12T04:59:50.429Z,4.10
2019-02-12T05:02:19.846Z,4.30
2019-02-12T05:04:49.332Z,3.70
2019-02-12T05:07:18.756Z,4.33
2019-02-12T05:09:49.272Z,4.13
2019-02-12T05:12:19.593Z,5.17
2019-02-12T05:14:49.118Z,4.33
2019-02-12T05:17:18.581Z,4.77
2019-02-12T05:19:48.010Z,4.57
2019-02-12T05:22:17.429Z,4.27
2019-02-12T05:24:47.062Z,4.10
2019-02-12T05:27:16.474Z,3.93
2019-02-12T05:29:45.969Z,4.80
2019-02-12T05:32:15.380Z,4.73
2019-02-12T05:34:44.830Z,5.20
2019-02-12T05:37:14.346Z,4.93
2019-02-12T05:39:43.803Z,3.90
2019-02-12T05:42:13.210Z,4.80
2019-02-12T05:44:42.679Z,4.93
2019-02-12T05:47:12.082Z,4.53
2019-02-12T05:49:41.511Z,3.87
2019-02-12T05:52:10.915Z,3.90
2019-02-12T05:54:40.359Z,4.57
2019-02-12T05:57:09.764Z,3.67
2019-02-12T05:59:39.472Z,4.40
2019-02-12T06:02:08.875Z,4.30
2019-02-12T06:04:38.404Z,4.20
2019-02-12T06:07:07.822Z,5.37
2019-02-12T06:09:37.348Z,4.07
2019-02-12T06:12:06.743Z,4.57
2019-02-12T06:14:36.211Z,4.70
2019-02-12T06:17:05.615Z,4.20
2019-02-12T06:19:35.046Z,4.87
2019-02-12T06:22:04.455Z,3.73
2019-02-12T06:24:33.906Z,4.00
2019-02-12T06:27:03.445Z,3.90
2019-02-12T06:29:32.963Z,3.93
2019-02-12T06:32:02.382Z,4.20
2019-02-12T06:34:31.821Z,4.30
2019-02-12T06:37:01.301Z,4.40
2019-02-12T06:39:30.790Z,4.37
2019-02-12T06:42:00.265Z,3.77
2019-02-12T06:44:29.705Z,4.30
2019-02-12T06:46:59.107Z,4.00
2019-02-12T06:49:28.594Z,4.57
2019-02-12T06:51:58.071Z,4.03
2019-02-12T06:54:27.586Z,4.13
2019-02-12T06:56:56.996Z,4.77
2019-02-12T06:59:26.438Z,5.77
2019-02-12T07:02:13.322Z,4.50
2019-02-12T07:04:42.816Z,4.47
2019-02-12T07:07:24.284Z,3.93
2019-02-12T07:09:55.197Z,4.33
2019-02-12T07:12:42.462Z,4.00
2019-02-12T07:15:22.838Z,4.83
2019-02-12T07:17:59.779Z,4.67
2019-02-12T07:20:49.397Z,4.93
2019-02-12T07:23:27.393Z,4.33
2019-02-12T07:26:12.834Z,3.70
2019-02-12T07:29:07.343Z,4.50
2019-02-12T07:31:46.075Z,5.27
2019-02-12T07:34:34.680Z,4.17
2019-02-12T07:37:21.670Z,4.40
2019-02-12T07:40:16.335Z,4.73
2019-02-12T07:43:04.963Z,4.70
2019-02-12T07:45:52.008Z,4.97
2019-02-12T07:48:45.206Z,4.83
2019-02-12T07:51:23.770Z,4.10
2019-02-12T07:53:58.270Z,4.57
2019-02-12T07:56:55.758Z,4.90
2019-02-12T07:59:56.290Z,4.20
2019-02-12T08:02:34.330Z,4.57
2019-02-12T08:05:28.714Z,4.30
2019-02-12T08:08:13.974Z,4.50
2019-02-12T08:11:03.616Z,4.27
2019-02-12T08:13:50.834Z,4.40
2019-02-12T08:16:37.924Z,4.70
2019-02-12T08:19:27.417Z,4.10
2019-02-12T08:22:25.471Z,4.17
2019-02-12T08:24:59.118Z,4.60
2019-02-12T08:27:40.413Z,5.00
2019-02-12T08:30:28.551Z,4.23
2019-02-12T08:33:20.222Z,4.43
2019-02-12T08:35:58.631Z,4.73
2019-02-12T08:38:45.745Z,4.17
2019-02-12T08:41:33.065Z,4.40
2019-02-12T08:44:36.786Z,4.30
2019-02-12T08:47:27.713Z,4.13
2019-02-12T08:50:03.675Z,4.40
2019-02-12T08:52:49.549Z,4.03
2019-02-12T08:55:22.368Z,4.73
2019-02-12T08:58:16.960Z,4.47
2019-02-12T09:01:01.182Z,4.57
2019-02-12T09:03:36.222Z,4.33
2019-02-12T09:06:23.478Z,4.30
2019-02-12T09:09:26.971Z,4.70
2019-02-12T09:12:05.621Z,6.47
2019-02-12T09:14:44.801Z,4.33
2019-02-12T09:17:36.538Z,5.43
2019-02-12T09:20:20.451Z,4.93
2019-02-12T09:23:13.613Z,5.00
2019-02-12T09:25:45.190Z,5.47
2019-02-12T09:28:16.960Z,4.17
2019-02-12T09:31:04.240Z,5.67
2019-02-12T09:33:43.293Z,5.03
2019-02-12T09:36:31.828Z,4.50
2019-02-12T09:39:29.488Z,4.87
2019-02-12T09:42:06.018Z,5.90
2019-02-12T09:44:53.618Z,6.00
2019-02-12T09:47:57.409Z,5.17
2019-02-12T09:50:57.858Z,4.30
2019-02-12T09:53:40.662Z,4.10
2019-02-12T09:56:23.469Z,4.37
2019-02-12T09:59:02.898Z,4.10
2019-02-12T10:01:57.318Z,4.47
2019-02-12T10:05:00.846Z,5.00
2019-02-12T10:07:44.140Z,3.53
2019-02-12T10:10:34.134Z,4.37
2019-02-12T10:13:28.592Z,5.13
2019-02-12T10:16:06.220Z,4.20
2019-02-12T10:19:00.538Z,4.97
2019-02-12T10:21:49.082Z,5.40
2019-02-12T10:24:39.113Z,3.90
2019-02-12T10:27:26.287Z,3.43
2019-02-12T10:30:08.668Z,3.83
2019-02-12T10:32:37.295Z,4.40
2019-02-12T10:35:06.718Z,3.33
2019-02-12T10:37:36.120Z,3.50
2019-02-12T10:40:05.561Z,3.50
2019-02-12T10:42:34.990Z,4.17
2019-02-12T10:45:04.455Z,3.30
2019-02-12T10:47:33.868Z,4.10
2019-02-12T10:50:03.369Z,4.97
2019-02-12T10:52:32.772Z,4.23
2019-02-12T10:55:02.178Z,3.20
2019-02-12T10:57:31.589Z,3.80
2019-02-12T11:00:01.031Z,3.13
2019-02-12T11:02:30.433Z,3.53
2019-02-12T11:04:59.837Z,3.20
2019-02-12T11:07:29.262Z,3.30
2019-02-12T11:09:58.674Z,3.30
2019-02-12T11:12:28.188Z,4.03
2019-02-12T11:14:57.613Z,3.60
2019-02-12T11:17:27.022Z,3.53
2019-02-12T11:19:56.452Z,3.77
2019-02-12T11:22:25.829Z,2.50
2019-02-12T11:24:55.257Z,3.27
2019-02-12T11:27:24.655Z,2.97
2019-02-12T11:29:54.361Z,2.87
2019-02-12T11:32:23.747Z,2.53
2019-02-12T11:34:53.217Z,3.10
2019-02-12T11:37:22.642Z,2.80
2019-02-12T11:39:52.131Z,3.50
2019-02-12T11:42:21.557Z,2.87
2019-02-12T11:44:51.071Z,2.70
2019-02-12T11:47:20.461Z,3.10
2019-02-12T11:49:49.891Z,2.47
2019-02-12T11:52:19.282Z,3.07
2019-02-12T11:54:48.707Z,3.07
2019-02-12T11:57:18.132Z,7.30
2019-02-12T11:59:47.557Z,4.23
2019-02-12T12:02:17.033Z,6.70
2019-02-12T12:04:46.451Z,7.73
2019-02-12T12:07:15.889Z,6.53
2019-02-12T12:09:45.314Z,3.83
2019-02-12T12:12:14.722Z,2.83
2019-02-12T12:14:44.158Z,2.70
2019-02-12T12:17:13.574Z,3.23
2019-02-12T12:19:42.994Z,6.73
2019-02-12T12:22:12.598Z,4.57
2019-02-12T12:24:42.058Z,4.93
2019-02-12T12:27:11.447Z,12.10
2019-02-12T12:29:40.902Z,12.60
2019-02-12T12:32:10.398Z,7.40
2019-02-12T12:34:39.814Z,5.33
2019-02-12T12:37:09.217Z,7.50
2019-02-12T12:39:38.630Z,4.87
2019-02-12T12:42:08.118Z,4.27
2019-02-12T12:44:37.604Z,6.60
2019-02-12T12:47:07.035Z,9.43
2019-02-12T12:49:36.493Z,5.20
2019-02-12T12:52:06.195Z,3.87
2019-02-12T12:54:35.646Z,7.00
2019-02-12T12:57:05.186Z,5.10
2019-02-12T12:59:34.684Z,3.43
2019-02-12T13:02:04.093Z,14.80
2019-02-12T13:04:33.510Z,4.00
2019-02-12T13:07:02.985Z,4.77
2019-02-12T13:09:32.397Z,8.67
2019-02-12T13:12:01.876Z,4.40
2019-02-12T13:14:31.277Z,3.50
2019-02-12T13:17:00.705Z,3.80
2019-02-12T13:19:30.154Z,3.10
2019-02-12T13:22:02.253Z,3.83
2019-02-12T13:24:31.738Z,3.03
2019-02-12T13:27:01.150Z,2.90
2019-02-12T13:29:30.612Z,2.97
2019-02-12T13:32:00.168Z,6.23
2019-02-12T13:34:29.502Z,2.63
2019-02-12T13:36:58.933Z,2.87
2019-02-12T13:39:28.362Z,3.00
2019-02-12T13:41:57.900Z,3.73
2019-02-12T13:44:27.302Z,4.83
2019-02-12T13:46:56.772Z,3.80
2019-02-12T13:49:26.278Z,4.80
2019-02-12T13:51:55.790Z,5.10
2019-02-12T13:54:25.202Z,3.47
2019-02-12T13:56:54.618Z,2.50
2019-02-12T13:59:24.090Z,2.63
2019-02-12T14:01:53.510Z,3.70
2019-02-12T14:04:23.114Z,2.77
2019-02-12T14:06:52.610Z,4.17
2019-02-12T14:09:22.147Z,3.75
2019-02-12T14:11:51.629Z,3.20
2019-02-12T14:14:21.112Z,2.73
2019-02-12T14:16:50.629Z,3.07
2019-02-12T14:19:20.026Z,2.80
2019-02-12T14:21:49.537Z,2.50
2019-02-12T14:24:18.941Z,2.80
2019-02-12T14:26:48.445Z,3.07
2019-02-12T14:29:17.840Z,3.13
2019-02-12T14:31:52.841Z,3.43
2019-02-12T14:34:18.498Z,3.13
2019-02-12T14:36:47.927Z,3.73
2019-02-12T14:39:17.342Z,11.40
2019-02-12T14:41:46.758Z,10.67
2019-02-12T14:44:16.266Z,10.40
2019-02-12T14:46:45.699Z,5.37
2019-02-12T14:49:15.237Z,6.20
2019-02-12T14:51:44.815Z,5.80
2019-02-12T14:54:14.343Z,6.30
2019-02-12T14:56:43.861Z,6.43
2019-02-12T14:59:13.334Z,6.17
2019-02-12T15:01:42.848Z,6.37
2019-02-12T15:04:12.348Z,6.50
2019-02-12T15:06:41.869Z,5.90
2019-02-12T15:09:11.350Z,4.37
2019-02-12T15:11:40.975Z,6.07
2019-02-12T15:14:10.479Z,4.13
2019-02-12T15:16:39.965Z,3.83
2019-02-12T15:19:09.386Z,4.63
2019-02-12T15:21:38.904Z,6.43
2019-02-12T15:24:08.395Z,4.67
2019-02-12T15:26:37.912Z,5.50
2019-02-12T15:29:07.654Z,5.30
2019-02-12T15:31:37.106Z,4.83
2019-02-12T15:34:06.598Z,4.43
2019-02-12T15:36:36.113Z,4.93
2019-02-12T15:39:05.790Z,3.73
2019-02-12T15:41:35.227Z,3.07
2019-02-12T15:44:04.752Z,3.40
2019-02-12T15:46:34.135Z,3.80
2019-02-12T15:49:03.565Z,4.90
2019-02-12T15:51:33.045Z,6.70
2019-02-12T15:54:02.506Z,5.50
2019-02-12T15:56:31.935Z,3.43
2019-02-12T15:59:03.042Z,3.73
2019-02-12T16:01:32.651Z,3.63
2019-02-12T16:04:02.070Z,3.20
2019-02-12T16:06:31.508Z,3.50
2019-02-12T16:09:01.135Z,4.30
2019-02-12T16:11:30.606Z,3.50
2019-02-12T16:14:00.034Z,4.27
2019-02-12T16:16:30.124Z,3.40
2019-02-12T16:19:00.562Z,7.30
2019-02-12T16:21:29.978Z,12.17
2019-02-12T16:23:59.472Z,8.37
2019-02-12T16:26:28.958Z,10.67
2019-02-12T16:28:58.386Z,7.33
2019-02-12T16:31:27.898Z,9.67
2019-02-12T16:33:57.344Z,7.37
2019-02-12T16:36:26.794Z,8.50
2019-02-12T16:38:56.240Z,9.57
2019-02-12T16:41:25.898Z,14.73
2019-02-12T16:43:55.417Z,4.03
2019-02-12T16:46:24.819Z,4.20
2019-02-12T16:48:54.249Z,4.87
2019-02-12T16:51:23.653Z,3.70
2019-02-12T16:53:53.117Z,5.07
2019-02-12T16:56:22.537Z,3.47
2019-02-12T16:58:52.027Z,3.47
2019-02-12T17:01:21.446Z,4.83
2019-02-12T17:03:50.863Z,4.23
2019-02-12T17:06:20.248Z,5.87
2019-02-12T17:08:49.665Z,4.60
2019-02-12T17:11:19.065Z,5.13
2019-02-12T17:13:48.541Z,6.10
2019-02-12T17:16:18.038Z,5.23
2019-02-12T17:18:47.476Z,5.43
2019-02-12T17:21:17.061Z,6.03
2019-02-12T17:23:46.489Z,4.20
2019-02-12T17:26:16.741Z,4.03
2019-02-12T17:28:46.206Z,7.00
2019-02-12T17:31:15.634Z,8.43
2019-02-12T17:33:45.113Z,8.50
2019-02-12T17:36:14.602Z,9.50
2019-02-12T17:38:44.049Z,8.00
2019-02-12T17:41:13.458Z,6.70
2019-02-12T17:43:42.948Z,10.80
2019-02-12T17:46:12.350Z,7.30
2019-02-12T17:48:41.806Z,7.40
2019-02-12T17:51:11.429Z,8.03
2019-02-12T17:53:40.897Z,5.90
2019-02-12T17:56:10.333Z,5.00
2019-02-12T17:58:39.750Z,7.93
2019-02-12T18:01:09.529Z,8.30
2019-02-12T18:03:39.167Z,9.33
2019-02-12T18:06:08.642Z,5.57
2019-02-12T18:08:38.112Z,6.57
2019-02-12T18:11:07.643Z,5.97
2019-02-12T18:13:37.061Z,5.70
2019-02-12T18:16:06.559Z,6.50
2019-02-12T18:18:35.995Z,4.70
2019-02-12T18:21:05.502Z,5.20
2019-02-12T18:23:34.903Z,3.80
2019-02-12T18:26:04.330Z,4.50
2019-02-12T18:28:33.749Z,3.87
2019-02-12T18:31:03.220Z,4.67
2019-02-12T18:33:32.638Z,4.93
2019-02-12T18:36:02.081Z,4.27
2019-02-12T18:38:31.492Z,5.47
2019-02-12T18:41:00.989Z,5.20
2019-02-12T18:43:30.402Z,5.60
2019-02-12T18:45:59.840Z,5.67
2019-02-12T18:48:29.234Z,5.60
2019-02-12T18:50:58.917Z,5.50
2019-02-12T18:53:28.446Z,6.00
2019-02-12T18:55:58.232Z,6.30
2019-02-12T18:58:27.819Z,5.27
2019-02-12T19:00:57.525Z,5.23
2019-02-12T19:03:26.925Z,6.93
2019-02-12T19:05:56.350Z,6.90
2019-02-12T19:08:25.775Z,7.27
2019-02-12T19:10:55.294Z,8.00
2019-02-12T19:13:24.774Z,7.23
2019-02-12T19:15:54.211Z,7.80
2019-02-12T19:18:24.810Z,10.90
2019-02-12T19:20:54.247Z,10.63
2019-02-12T19:23:23.687Z,6.17
2019-02-12T19:25:53.127Z,7.77
2019-02-12T19:28:22.649Z,6.97
2019-02-12T19:30:52.058Z,6.40
2019-02-12T19:33:21.587Z,8.37
2019-02-12T19:35:51.072Z,7.20
2019-02-12T19:38:20.500Z,7.53
2019-02-12T19:40:49.921Z,7.87
2019-02-12T19:43:19.355Z,10.90
2019-02-12T19:45:48.954Z,8.93
2019-02-12T19:48:18.406Z,12.97
2019-02-12T19:50:47.827Z,7.20
2019-02-12T19:53:17.277Z,8.47
2019-02-12T19:55:46.774Z,9.40
2019-02-12T19:58:16.295Z,6.83
2019-02-12T20:00:45.830Z,8.30
2019-02-12T20:03:15.311Z,6.83
2019-02-12T20:05:44.739Z,7.80
2019-02-12T20:08:14.159Z,7.10
2019-02-12T20:10:43.635Z,6.23
2019-02-12T20:13:13.154Z,7.47
2019-02-12T20:15:42.594Z,6.90
2019-02-12T20:18:12.035Z,7.57
2019-02-12T20:20:41.457Z,7.43
2019-02-12T20:23:10.872Z,8.07
2019-02-12T20:25:40.386Z,8.10
2019-02-12T20:28:09.885Z,7.73
2019-02-12T20:30:39.411Z,8.17
2019-02-12T20:33:08.834Z,7.27
2019-02-12T20:35:38.270Z,8.87
2019-02-12T20:38:07.713Z,8.67
2019-02-12T20:40:37.131Z,7.87
2019-02-12T20:43:06.572Z,8.07
2019-02-12T20:45:36.039Z,7.67
2019-02-12T20:48:05.485Z,8.13
2019-02-12T20:50:34.987Z,8.53
2019-02-12T20:53:04.463Z,10.90
2019-02-12T20:55:33.929Z,9.23
2019-02-12T20:58:03.408Z,7.67
2019-02-12T21:00:33.166Z,11.23
2019-02-12T21:03:02.684Z,10.10
2019-02-12T21:05:32.151Z,8.20
2019-02-12T21:08:01.608Z,9.10
2019-02-12T21:10:31.175Z,9.00
2019-02-12T21:13:00.940Z,8.93
2019-02-12T21:15:30.723Z,11.37
2019-02-12T21:18:00.267Z,10.57
2019-02-12T21:20:29.934Z,10.27
2019-02-12T21:22:59.801Z,10.37
2019-02-12T21:25:29.370Z,11.10
2019-02-12T21:27:59.104Z,10.67
2019-02-12T21:30:28.803Z,11.13
2019-02-12T21:32:58.394Z,9.77
2019-02-12T21:35:27.907Z,11.03
2019-02-12T21:37:57.630Z,10.47
2019-02-12T21:40:27.052Z,9.87
2019-02-12T21:42:56.485Z,10.23
2019-02-12T21:45:26.023Z,11.60
2019-02-12T21:47:55.509Z,11.43
2019-02-12T21:50:25.003Z,10.10
2019-02-12T21:52:54.418Z,10.93
2019-02-12T21:55:23.842Z,11.37
2019-02-12T21:57:53.562Z,12.63
2019-02-12T22:00:22.957Z,13.20
2019-02-12T22:02:52.430Z,12.50
2019-02-12T22:05:21.835Z,13.27
2019-02-12T22:07:51.369Z,12.07
2019-02-12T22:10:20.860Z,12.40
2019-02-12T22:12:50.386Z,12.33
2019-02-12T22:15:20.497Z,12.33
2019-02-12T22:17:49.974Z,13.80
2019-02-12T22:20:19.394Z,13.57
2019-02-12T22:22:48.848Z,12.10
2019-02-12T22:25:18.258Z,12.80
2019-02-12T22:27:47.919Z,11.63
2019-02-12T22:30:17.992Z,11.20
2019-02-12T22:32:47.433Z,9.97
2019-02-12T22:35:16.859Z,10.90
2019-02-12T22:37:46.275Z,12.50
2019-02-12T22:40:15.704Z,13.57
2019-02-12T22:42:45.139Z,11.13
2019-02-12T22:45:15.367Z,10.97
2019-02-12T22:47:45.190Z,9.27
2019-02-12T22:50:14.628Z,9.33
2019-02-12T22:52:44.100Z,10.77
2019-02-12T22:55:13.501Z,9.87
2019-02-12T22:57:48.844Z,9.90
2019-02-12T23:03:02.263Z,10.33
2019-02-12T23:05:31.674Z,10.67
2019-02-12T23:08:01.134Z,11.37
2019-02-12T23:10:30.618Z,11.57
2019-02-12T23:13:00.154Z,10.07
2019-02-12T23:15:29.566Z,10.77
2019-02-12T23:17:58.991Z,10.07
2019-02-12T23:20:28.422Z,15.00
2019-02-12T23:22:57.865Z,11.47
2019-02-12T23:25:27.260Z,11.50
2019-02-12T23:27:57.746Z,12.03
2019-02-12T23:30:27.318Z,10.67
2019-02-12T23:32:56.846Z,13.50
2019-02-12T23:35:26.260Z,11.47
2019-02-12T23:37:55.708Z,12.47
2019-02-12T23:40:25.126Z,25.07
2019-02-12T23:42:54.694Z,14.23
2019-02-12T23:45:24.120Z,11.13
2019-02-12T23:47:53.564Z,11.43
2019-02-12T23:50:22.961Z,11.10
2019-02-12T23:52:52.390Z,9.43
2019-02-12T23:55:21.833Z,10.50
2019-02-12T23:57:51.370Z,11.13
